Thorndike, ME

7:30 PM EST on February 09, 2016 (GMT -0500)
APRSWXNET | | Change Station
CLOSE
Current Station
Personal Weather Station
Location: Brooks, ME
Elevation: 1056 ft
Nearby Weather Stations

Elev 1056 ft 44.52 °N, 69.20 °W | Updated 29 minutes ago

Overcast
Overcast
17 °F
Feels Like 8 °F
N
6
Wind Variable Wind from NNE
Gusts 0.0 mph

Today
High -- | Low -- °F
--% Chance of Precip.
Yesterday
High -- | Low -- °F
Precip. -- in
Pressure 29.70 in
Visibility 10.0 miles
Clouds Mostly Cloudy 1700 ft
Windchill 8 °F
Dew Point 14 °F
Humidity 87%
Rainfall in
Snow Depth Not available.
6:46 AM 4:56 PM
Waxing Crescent, 3% visible
METAR KWVL 092356Z AUTO 35003KT 10SM BKN017 M09/M11 A2958 RMK AO2 SLP058 60000 T10941111 11056 21094 50007 FZRANO
Pressure 29.70 in
Visibility 10.0 miles
Clouds Mostly Cloudy 1700 ft
Windchill 8 °F
Dew Point 14 °F
Humidity 87%
Rainfall in
Snow Depth Not available.
6:46 AM 4:56 PM
Waxing Crescent, 3% visible
METAR KWVL 092356Z AUTO 35003KT 10SM BKN017 M09/M11 A2958 RMK AO2 SLP058 60000 T10941111 11056 21094 50007 FZRANO

10-Day Weather Forecast

Almanac

Astronomy

Feb. 09, 2016 Rise Set
Actual Time
Civil Twilight
Nautical Twilight
Astronomical Twilight
Moon
Length of Visible Light
Length of Day
Tomorrow will be .
, % of the Moon is Illuminated

Today's Extremes

State Highs State Lows

Community

WunderPhotos

Upload Photos

1,891,748 photos uploaded!

WunderBlog® & News

Nearby

Air Quality

  Air Quality AQ Index Pollutant
Not available.

Snow Depth

Station Depth Elevation

Earthquake Activity

City Distance Mag. Time & Date
Minimum magnitude displayed is 2.5.

Coastal Water Temperatures

Place Temperature

Stations

Nearby Weather Stations

Station Location Temp. Windchill Dew Point Humidity Wind Precip. Elev Updated Type
                   

Watches & Warnings

There are currently no watches in effect.